Flight Track Log - Related Links

Times and Time Zones

All times are in EST time to prevent confusion due to time zone crossing. See the AFL150 flight status page for this flight to view local times or setup timezone preferences in your user account.

Time Position Orientation Groundspeed Altitude Reporting Facility
EST Latitude Longitude Course Direction KTS MPH feet Rate Location/Type
Fri 04:56:00 AM 56.2263 36.9436 313° West  Level FlightAware Approximate
Fri 04:57:00 AM 56.3015 36.7948 312° West  Level FlightAware Approximate
Fri 04:58:00 AM 56.3765 36.6454 312° West  Level FlightAware Approximate
Fri 04:59:00 AM 56.4514 36.4953 312° West  Level FlightAware Approximate
Fri 05:00:00 AM 56.5260 36.3448 312° West  Level FlightAware Approximate
Fri 05:01:00 AM 56.6005 36.1936 312° West  Level FlightAware Approximate
Fri 05:02:00 AM 56.6748 36.0418 312° West  Level FlightAware Approximate
Fri 05:03:00 AM 56.7489 35.8894 312° West  Level FlightAware Approximate
Fri 05:04:00 AM 56.8228 35.7364 311° West  Level FlightAware Approximate
Fri 05:05:00 AM 56.8965 35.5829 311° West  Level FlightAware Approximate
Fri 05:06:00 AM 56.9700 35.4287 311° West  Level FlightAware Approximate
Fri 05:07:00 AM 57.0434 35.2739 311° West  Level FlightAware Approximate
Fri 05:08:00 AM 57.1165 35.1185 311° West  Level FlightAware Approximate
Fri 05:09:00 AM 57.1895 34.9624 311° West  Level FlightAware Approximate
Fri 05:10:00 AM 57.2622 34.8058 311° West  Level FlightAware Approximate
Fri 05:11:00 AM 57.3348 34.6485 311° West  Level FlightAware Approximate
Fri 05:12:00 AM 57.4072 34.4907 310° West  Level FlightAware Approximate
Fri 05:13:00 AM 57.4793 34.3321 310° West  Level FlightAware Approximate
Fri 05:14:00 AM 57.4930 34.2949 309° West  Level FlightAware Approximate
Fri 05:15:00 AM 57.5628 34.1322 309° West  Level FlightAware Approximate
Fri 05:16:00 AM 57.6323 33.9690 309° West  Level FlightAware Approximate
Fri 05:17:00 AM 57.7015 33.8051 308° West  Level FlightAware Approximate
Fri 05:18:00 AM 57.7706 33.6406 308° West  Level FlightAware Approximate
Fri 05:19:00 AM 57.8395 33.4754 308° West  Level FlightAware Approximate
Fri 05:20:00 AM 57.9081 33.3097 308° West  Level FlightAware Approximate
Fri 05:21:00 AM 57.9766 33.1433 308° West  Level FlightAware Approximate
Fri 05:22:00 AM 58.0448 32.9762 308° West  Level FlightAware Approximate
Fri 05:23:00 AM 58.1128 32.8085 308° West  Level FlightAware Approximate
Fri 05:24:00 AM 58.1806 32.6402 307° West  Level FlightAware Approximate
Fri 05:25:00 AM 58.2481 32.4713 307° West  Level FlightAware Approximate
Fri 05:26:00 AM 58.3154 32.3017 307° West  Level FlightAware Approximate
Fri 05:27:00 AM 58.3825 32.1314 307° West  Level FlightAware Approximate
Fri 05:28:00 AM 58.4494 31.9605 307° West  Level FlightAware Approximate
Fri 05:29:00 AM 58.5161 31.7889 307° West  Level FlightAware Approximate
Fri 05:30:00 AM 58.5825 31.6168 307° West  Level FlightAware Approximate
Fri 05:31:00 AM 58.6487 31.4439 306° West  Level FlightAware Approximate
Fri 05:32:00 AM 58.7146 31.2704 306° West  Level FlightAware Approximate
Fri 05:33:00 AM 58.7804 31.0962 306° West  Level FlightAware Approximate
Fri 05:34:00 AM 58.8459 30.9214 306° West  Level FlightAware Approximate
Fri 05:35:00 AM 58.9111 30.7459 306° West  Level FlightAware Approximate
Fri 05:36:00 AM 58.9761 30.5697 306° West  Level FlightAware Approximate
Fri 05:37:00 AM 59.0409 30.3929 306° West  Level FlightAware Approximate
Fri 05:38:00 AM 59.1054 30.2154 305° West  Level FlightAware Approximate
Fri 05:39:00 AM 59.1697 30.0373 305° West  Level FlightAware Approximate
Fri 05:40:00 AM 59.2337 29.8585 305° West  Level FlightAware Approximate
Fri 05:41:00 AM 59.2975 29.6790 305° West  Level FlightAware Approximate
Fri 05:42:00 AM 59.3611 29.4988 305° West  Level FlightAware Approximate
Fri 05:43:00 AM 59.4244 29.3180 305° West  Level FlightAware Approximate
Fri 05:44:00 AM 59.4874 29.1364 304° West  Level FlightAware Approximate
Fri 05:45:00 AM 59.5502 28.9543 304° West  Level FlightAware Approximate
Fri 05:46:00 AM 59.6128 28.7714 304° West  Level FlightAware Approximate
Fri 05:47:00 AM 59.6750 28.5878 304° West  Level FlightAware Approximate
Fri 05:48:00 AM 59.7371 28.4036 304° West  Level FlightAware Approximate
Fri 05:49:00 AM 59.7988 28.2187 304° West  Level FlightAware Approximate
Fri 05:50:00 AM 59.8603 28.0331 303° West  Level FlightAware Approximate
Fri 05:51:00 AM 59.9216 27.8468 303° West  Level FlightAware Approximate
Fri 05:52:00 AM 59.9826 27.6598 303° West  Level FlightAware Approximate
Fri 05:53:00 AM 60.0433 27.4721 303° West  Level FlightAware Approximate
Fri 05:54:00 AM 60.1037 27.2838 303° West  Level FlightAware Approximate
Fri 05:55:00 AM 60.1639 27.0947 303° West  Level FlightAware Approximate
Fri 05:56:00 AM 60.2240 26.9052 303° West  Level FlightAware Approximate
Fri 05:57:00 AM 60.2839 26.7151 302° West  Level FlightAware Approximate
Fri 05:58:00 AM 60.3435 26.5243 302° West  Level FlightAware Approximate
Fri 05:59:00 AM 60.4029 26.3328 302° West  Level FlightAware Approximate
Fri 06:00:00 AM 60.4619 26.1406 302° West  Level FlightAware Approximate
Fri 06:01:00 AM 60.5207 25.9477 302° West  Level FlightAware Approximate
Fri 06:02:00 AM 60.5792 25.7541 302° West  Level FlightAware Approximate
Fri 06:03:00 AM 60.6375 25.5598 301° West  Level FlightAware Approximate
Fri 06:04:00 AM 60.6954 25.3648 301° West  Level FlightAware Approximate
Fri 06:05:00 AM 60.7531 25.1691 301° West  Level FlightAware Approximate
Fri 06:06:00 AM 60.8105 24.9727 301° West  Level FlightAware Approximate
Fri 06:07:00 AM 60.8676 24.7756 301° West  Level FlightAware Approximate
Fri 06:08:00 AM 60.9244 24.5777 301° West  Level FlightAware Approximate
Fri 06:09:00 AM 60.9809 24.3792 300° West  Level FlightAware Approximate
Fri 06:10:00 AM 61.0371 24.1800 300° West  Level FlightAware Approximate
Fri 06:11:00 AM 61.0930 23.9801 300° West  Level FlightAware Approximate
Fri 06:12:00 AM 61.1487 23.7794 300° West  Level FlightAware Approximate
Fri 06:13:00 AM 61.2040 23.5781 300° West  Level FlightAware Approximate
Fri 06:14:00 AM 61.2590 23.3760 300° West  Level FlightAware Approximate
Fri 06:15:00 AM 61.3138 23.1733 299° West  Level FlightAware Approximate
Fri 06:16:00 AM 61.3682 22.9698 299° West  Level FlightAware Approximate
Fri 06:17:00 AM 61.4223 22.7656 299° West  Level FlightAware Approximate
Fri 06:18:00 AM 61.4761 22.5608 299° West  Level FlightAware Approximate
Fri 06:19:00 AM 61.5296 22.3552 299° West  Level FlightAware Approximate
Fri 06:20:00 AM 61.5828 22.1489 299° West  Level FlightAware Approximate
Fri 06:21:00 AM 61.6356 21.9417 298° West  Level FlightAware Approximate
Fri 06:22:00 AM 61.6878 21.7337 298° West  Level FlightAware Approximate
Fri 06:23:00 AM 61.7397 21.5249 298° West  Level FlightAware Approximate
Fri 06:24:00 AM 61.7913 21.3153 298° West  Level FlightAware Approximate
Fri 06:25:00 AM 61.8426 21.1051 297° West  Level FlightAware Approximate
Fri 06:26:00 AM 61.8935 20.8942 297° West  Level FlightAware Approximate
Fri 06:27:00 AM 61.9441 20.6826 297° West  Level FlightAware Approximate
Fri 06:28:00 AM 61.9944 20.4703 297° West  Level FlightAware Approximate
Fri 06:29:00 AM 62.0444 20.2573 297° West  Level FlightAware Approximate
Fri 06:30:00 AM 62.0941 20.0437 297° West  Level FlightAware Approximate
Fri 06:31:00 AM 62.1436 19.8294 296° West  Level FlightAware Approximate
Fri 06:32:00 AM 62.1926 19.6144 296° West  Level FlightAware Approximate
Fri 06:33:00 AM 62.2414 19.3987 296° West  Level FlightAware Approximate
Fri 06:34:00 AM 62.2898 19.1823 296° West  Level FlightAware Approximate
Fri 06:35:00 AM 62.3379 18.9653 296° West  Level FlightAware Approximate
Fri 06:36:00 AM 62.3856 18.7475 295° West  Level FlightAware Approximate
Fri 06:37:00 AM 62.4330 18.5290 295° West  Level FlightAware Approximate
Fri 06:38:00 AM 62.4800 18.3098 295° West  Level FlightAware Approximate
Fri 06:39:00 AM 62.5267 18.0900 295° West  Level FlightAware Approximate
Fri 06:40:00 AM 62.5731 17.8694 295° West  Level FlightAware Approximate
Fri 06:41:00 AM 62.6191 17.6482 294° West  Level FlightAware Approximate
Fri 06:42:00 AM 62.6648 17.4263 294° West  Level FlightAware Approximate
Fri 06:43:00 AM 62.7101 17.2037 294° West  Level FlightAware Approximate
Fri 06:44:00 AM 62.7550 16.9805 294° West  Level FlightAware Approximate
Fri 06:45:00 AM 62.7996 16.7565 294° West  Level FlightAware Approximate
Fri 06:46:00 AM 62.8439 16.5319 293° West  Level FlightAware Approximate
Fri 06:47:00 AM 62.8877 16.3066 293° West  Level FlightAware Approximate
Fri 06:48:00 AM 62.9313 16.0806 293° West  Level FlightAware Approximate
Fri 06:49:00 AM 62.9744 15.8540 293° West  Level FlightAware Approximate
Fri 06:50:00 AM 63.0172 15.6267 293° West  Level FlightAware Approximate
Fri 06:51:00 AM 63.0597 15.3987 292° West  Level FlightAware Approximate
Fri 06:52:00 AM 63.1017 15.1700 292° West  Level FlightAware Approximate
Fri 06:53:00 AM 63.1434 14.9407 292° West  Level FlightAware Approximate
Fri 06:54:00 AM 63.1847 14.7108 292° West  Level FlightAware Approximate
Fri 06:55:00 AM 63.2257 14.4802 292° West  Level FlightAware Approximate
Fri 06:56:00 AM 63.2663 14.2489 291° West  Level FlightAware Approximate
Fri 06:57:00 AM 63.3065 14.0170 291° West  Level FlightAware Approximate
Fri 06:58:00 AM 63.3463 13.7844 291° West  Level FlightAware Approximate
Fri 06:59:00 AM 63.3857 13.5513 291° West  Level FlightAware Approximate
Fri 07:00:00 AM 63.4248 13.3174 291° West  Level FlightAware Approximate
Fri 07:01:00 AM 63.4635 13.0829 290° West  Level FlightAware Approximate
Fri 07:02:00 AM 63.5018 12.8478 290° West  Level FlightAware Approximate
Fri 07:03:00 AM 63.5397 12.6121 290° West  Level FlightAware Approximate
Fri 07:04:00 AM 63.5772 12.3758 290° West  Level FlightAware Approximate
Fri 07:05:00 AM 63.6143 12.1388 290° West  Level FlightAware Approximate
Fri 07:06:00 AM 63.6511 11.9012 289° West  Level FlightAware Approximate
Fri 07:07:00 AM 63.6874 11.6630 289° West  Level FlightAware Approximate
Fri 07:08:00 AM 63.7234 11.4242 289° West  Level FlightAware Approximate
Fri 07:09:00 AM 63.7589 11.1848 289° West  Level FlightAware Approximate
Fri 07:10:00 AM 63.7941 10.9448 288° West  Level FlightAware Approximate
Fri 07:11:00 AM 63.8288 10.7042 288° West  Level FlightAware Approximate
Fri 07:12:00 AM 63.8632 10.4629 288° West  Level FlightAware Approximate
Fri 07:13:00 AM 63.8972 10.2212 288° West  Level FlightAware Approximate
Fri 07:14:00 AM 63.9307 9.9788 288° West  Level FlightAware Approximate
Fri 07:15:00 AM 63.9639 9.7358 287° West  Level FlightAware Approximate
Fri 07:16:00 AM 63.9966 9.4923 287° West  Level FlightAware Approximate
Fri 07:17:00 AM 64.0289 9.2482 287° West  Level FlightAware Approximate
Fri 07:18:00 AM 64.0609 9.0036 287° West  Level FlightAware Approximate
Fri 07:19:00 AM 64.0924 8.7584 286° West  Level FlightAware Approximate
Fri 07:20:00 AM 64.1236 8.5126 286° West  Level FlightAware Approximate
Fri 07:21:00 AM 64.1548 8.2667 286° West  Level FlightAware Approximate
Fri 07:22:00 AM 64.1856 8.0201 286° West  Level FlightAware Approximate
Fri 07:23:00 AM 64.2159 7.7731 286° West  Level FlightAware Approximate
Fri 07:24:00 AM 64.2459 7.5255 286° West  Level FlightAware Approximate
Fri 07:25:00 AM 64.2754 7.2773 285° West  Level FlightAware Approximate
Fri 07:26:00 AM 64.3045 7.0286 285° West  Level FlightAware Approximate
Fri 07:27:00 AM 64.3332 6.7795 285° West  Level FlightAware Approximate
Fri 07:28:00 AM 64.3615 6.5297 285° West  Level FlightAware Approximate
Fri 07:29:00 AM 64.3887 6.2792 284° West  Level FlightAware Approximate
Fri 07:30:00 AM 64.4154 6.0281 284° West  Level FlightAware Approximate
Fri 07:31:00 AM 64.4417 5.7765 284° West  Level FlightAware Approximate
Fri 07:32:00 AM 64.4675 5.5244 283° West  Level FlightAware Approximate
Fri 07:33:00 AM 64.4929 5.2719 283° West  Level FlightAware Approximate
Fri 07:34:00 AM 64.5179 5.0188 283° West  Level FlightAware Approximate
Fri 07:35:00 AM 64.5424 4.7654 283° West  Level FlightAware Approximate
Fri 07:36:00 AM 64.5666 4.5114 283° West  Level FlightAware Approximate
Fri 07:37:00 AM 64.5902 4.2571 282° West  Level FlightAware Approximate
Fri 07:38:00 AM 64.6134 4.0022 282° West  Level FlightAware Approximate
Fri 07:39:00 AM 64.6362 3.7470 282° West  Level FlightAware Approximate
Fri 07:40:00 AM 64.6586 3.4913 282° West  Level FlightAware Approximate
Fri 07:41:00 AM 64.6805 3.2352 281° West  Level FlightAware Approximate
Fri 07:42:00 AM 64.7020 2.9787 281° West  Level FlightAware Approximate
Fri 07:43:00 AM 64.7230 2.7218 281° West  Level FlightAware Approximate
Fri 07:44:00 AM 64.7435 2.4645 281° West  Level FlightAware Approximate
Fri 07:45:00 AM 64.7637 2.2068 280° West  Level FlightAware Approximate
Fri 07:46:00 AM 64.7833 1.9488 280° West  Level FlightAware Approximate
Fri 07:47:00 AM 64.8026 1.6903 280° West  Level FlightAware Approximate
Fri 07:48:00 AM 64.8214 1.4315 280° West  Level FlightAware Approximate
Fri 07:49:00 AM 64.8397 1.1724 280° West  Level FlightAware Approximate
Fri 07:50:00 AM 64.8576 0.9129 279° West  Level FlightAware Approximate
Fri 07:51:00 AM 64.8750 0.6530 279° West  Level FlightAware Approximate
Fri 07:52:00 AM 64.8920 0.3928 279° West  Level FlightAware Approximate
Fri 07:53:00 AM 64.9085 0.1323 279° West  Level FlightAware Approximate
Fri 07:54:00 AM 64.9247 -0.1284 278° West  Level FlightAware Approximate
Fri 07:55:00 AM 64.9407 -0.3895 278° West  Level FlightAware Approximate
Fri 07:56:00 AM 64.9561 -0.6508 278° West  Level FlightAware Approximate
Fri 07:57:00 AM 64.9712 -0.9124 278° West  Level FlightAware Approximate
Fri 07:58:00 AM 64.9858 -1.1743 278° West  Level FlightAware Approximate
Fri 07:59:00 AM 64.9999 -1.4365 277° West  Level FlightAware Approximate
Fri 08:00:00 AM 65.0136 -1.6990 277° West  Level FlightAware Approximate
Fri 08:01:00 AM 65.0268 -1.9617 277° West  Level FlightAware Approximate
Fri 08:02:00 AM 65.0395 -2.2247 277° West  Level FlightAware Approximate
Fri 08:03:00 AM 65.0518 -2.4879 276° West  Level FlightAware Approximate
Fri 08:04:00 AM 65.0636 -2.7514 276° West  Level FlightAware Approximate
Fri 08:05:00 AM 65.0750 -3.0151 276° West  Level FlightAware Approximate
Fri 08:06:00 AM 65.0859 -3.2790 276° West  Level FlightAware Approximate
Fri 08:07:00 AM 65.0963 -3.5431 275° West  Level FlightAware Approximate
Fri 08:08:00 AM 65.1062 -3.8075 275° West  Level FlightAware Approximate
Fri 08:09:00 AM 65.1157 -4.0720 275° West  Level FlightAware Approximate
Fri 08:10:00 AM 65.1248 -4.3367 275° West  Level FlightAware Approximate
Fri 08:11:00 AM 65.1333 -4.6016 275° West  Level FlightAware Approximate
Fri 08:12:00 AM 65.1414 -4.8666 274° West  Level FlightAware Approximate
Fri 08:13:00 AM 65.1490 -5.1318 274° West  Level FlightAware Approximate
Fri 08:14:00 AM 65.1562 -5.3972 274° West  Level FlightAware Approximate
Fri 08:15:00 AM 65.1629 -5.6627 274° West  Level FlightAware Approximate
Fri 08:16:00 AM 65.1691 -5.9283 273° West  Level FlightAware Approximate
Fri 08:17:00 AM 65.1749 -6.1941 273° West  Level FlightAware Approximate
Fri 08:18:00 AM 65.1802 -6.4599 273° West  Level FlightAware Approximate
Fri 08:19:00 AM 65.1850 -6.7259 273° West  Level FlightAware Approximate
Fri 08:20:00 AM 65.1896 -6.9919 272° West  Level FlightAware Approximate
Fri 08:21:00 AM 65.1937 -7.2580 272° West  Level FlightAware Approximate
Fri 08:22:00 AM 65.1973 -7.5242 272° West  Level FlightAware Approximate
Fri 08:23:00 AM 65.2004 -7.7905 272° West  Level FlightAware Approximate
Fri 08:24:00 AM 65.2031 -8.0568 271° West  Level FlightAware Approximate
Fri 08:25:00 AM 65.2053 -8.3232 271° West  Level FlightAware Approximate
Fri 08:26:00 AM 65.2070 -8.5896 271° West  Level FlightAware Approximate
Fri 08:27:00 AM 65.2083 -8.8560 271° West  Level FlightAware Approximate
Fri 08:28:00 AM 65.2091 -9.1225 271° West  Level FlightAware Approximate
Fri 08:29:00 AM 65.2094 -9.3890 270° West  Level FlightAware Approximate
Fri 08:30:00 AM 65.2093 -9.6554 270° West  Level FlightAware Approximate
Fri 08:31:00 AM 65.2086 -9.9219 270° West  Level FlightAware Approximate
Fri 08:32:00 AM 65.2075 -10.1883 270° West  Level FlightAware Approximate
Fri 08:33:00 AM 65.2059 -10.4548 269° West  Level FlightAware Approximate
Fri 08:34:00 AM 65.2039 -10.7212 269° West  Level FlightAware Approximate
Fri 08:35:00 AM 65.2014 -10.9875 269° West  Level FlightAware Approximate
Fri 08:36:00 AM 65.1982 -11.2538 268° West  Level FlightAware Approximate
Fri 08:37:00 AM 65.1943 -11.5199 268° West  Level FlightAware Approximate
Fri 08:38:00 AM 65.1900 -11.7860 268° West  Level FlightAware Approximate
Fri 08:39:00 AM 65.1852 -12.0520 268° West  Level FlightAware Approximate
Fri 08:40:00 AM 65.1799 -12.3180 267° West  Level FlightAware Approximate
Fri 08:41:00 AM 65.1741 -12.5838 267° West  Level FlightAware Approximate
Fri 08:42:00 AM 65.1679 -12.8494 267° West  Level FlightAware Approximate
Fri 08:43:00 AM 65.1612 -13.1150 267° West  Level FlightAware Approximate
Fri 08:44:00 AM 65.1541 -13.3804 266° West  Level FlightAware Approximate
Fri 08:45:00 AM 65.1464 -13.6457 266° West  Level FlightAware Approximate
Fri 08:46:00 AM 65.1383 -13.9108 266° West  Level FlightAware Approximate
Fri 08:47:00 AM 65.1298 -14.1757 266° West  Level FlightAware Approximate
Fri 08:48:00 AM 65.1208 -14.4405 265° West  Level FlightAware Approximate
Fri 08:49:00 AM 65.1113 -14.7050 265° West  Level FlightAware Approximate
Fri 08:50:00 AM 65.1013 -14.9694 265° West  Level FlightAware Approximate
Fri 08:51:00 AM 65.0909 -15.2336 265° West  Level FlightAware Approximate
Fri 08:52:00 AM 65.0800 -15.4976 265° West  Level FlightAware Approximate
Fri 08:53:00 AM 65.0686 -15.7613 264° West  Level FlightAware Approximate
Fri 08:54:00 AM 65.0568 -16.0248 264° West  Level FlightAware Approximate
Fri 08:55:00 AM 65.0445 -16.2881 264° West  Level FlightAware Approximate
Fri 08:56:00 AM 65.0318 -16.5511 264° West  Level FlightAware Approximate
Fri 08:57:00 AM 65.0185 -16.8139 263° West  Level FlightAware Approximate
Fri 08:58:00 AM 65.0049 -17.0764 263° West  Level FlightAware Approximate
Fri 08:59:00 AM 64.9907 -17.3387 263° West  Level FlightAware Approximate
Fri 09:00:00 AM 64.9762 -17.6006 263° West  Level FlightAware Approximate
Fri 09:01:00 AM 64.9611 -17.8623 262° West  Level FlightAware Approximate
Fri 09:02:00 AM 64.9457 -18.1237 262° West  Level FlightAware Approximate
Fri 09:03:00 AM 64.9298 -18.3848 262° West  Level FlightAware Approximate
Fri 09:04:00 AM 64.9135 -18.6456 262° West  Level FlightAware Approximate
Fri 09:05:00 AM 64.8967 -18.9060 261° West  Level FlightAware Approximate
Fri 09:06:00 AM 64.8794 -19.1661 261° West  Level FlightAware Approximate
Fri 09:07:00 AM 64.8617 -19.4259 261° West  Level FlightAware Approximate
Fri 09:08:00 AM 64.8436 -19.6854 261° West  Level FlightAware Approximate
Fri 09:09:00 AM 64.8250 -19.9445 261° West  Level FlightAware Approximate
Fri 09:10:00 AM 64.8059 -20.2032 260° West  Level FlightAware Approximate
Fri 09:11:00 AM 64.7864 -20.4615 260° West  Level FlightAware Approximate
Fri 09:12:00 AM 64.7664 -20.7195 260° West  Level FlightAware Approximate
Fri 09:13:00 AM 64.7460 -20.9771 260° West  Level FlightAware Approximate
Fri 09:14:00 AM 64.7252 -21.2343 259° West  Level FlightAware Approximate
Fri 09:15:00 AM 64.7039 -21.4911 259° West  Level FlightAware Approximate
Fri 09:16:00 AM 64.6821 -21.7475 259° West  Level FlightAware Approximate
Fri 09:17:00 AM 64.6600 -22.0035 259° West  Level FlightAware Approximate
Fri 09:18:00 AM 64.6375 -22.2591 259° West  Level FlightAware Approximate
Fri 09:19:00 AM 64.6148 -22.5144 258° West  Level FlightAware Approximate
Fri 09:20:00 AM 64.5917 -22.7693 258° West  Level FlightAware Approximate
Fri 09:21:00 AM 64.5681 -23.0237 258° West  Level FlightAware Approximate
Fri 09:22:00 AM 64.5440 -23.2777 258° West  Level FlightAware Approximate
Fri 09:23:00 AM 64.5196 -23.5312 257° West  Level FlightAware Approximate
Fri 09:24:00 AM 64.4947 -23.7843 257° West  Level FlightAware Approximate
Fri 09:25:00 AM 64.4693 -24.0369 257° West  Level FlightAware Approximate
Fri 09:26:00 AM 64.4436 -24.2890 257° West  Level FlightAware Approximate
Fri 09:27:00 AM 64.4174 -24.5407 257° West  Level FlightAware Approximate
Fri 09:28:00 AM 64.3907 -24.7918 256° West  Level FlightAware Approximate
Fri 09:29:00 AM 64.3637 -25.0425 256° West  Level FlightAware Approximate
Fri 09:30:00 AM 64.3362 -25.2927 256° West  Level FlightAware Approximate
Fri 09:31:00 AM 64.3083 -25.5424 256° West  Level FlightAware Approximate
Fri 09:32:00 AM 64.2799 -25.7916 255° West  Level FlightAware Approximate
Fri 09:33:00 AM 64.2512 -26.0403 255° West  Level FlightAware Approximate
Fri 09:34:00 AM 64.2220 -26.2884 255° West  Level FlightAware Approximate
Fri 09:35:00 AM 64.1919 -26.5357 254° West  Level FlightAware Approximate
Fri 09:36:00 AM 64.1612 -26.7823 254° West  Level FlightAware Approximate
Fri 09:37:00 AM 64.1301 -27.0284 254° West  Level FlightAware Approximate
Fri 09:38:00 AM 64.0986 -27.2739 254° West  Level FlightAware Approximate
Fri 09:39:00 AM 64.0667 -27.5189 254° West  Level FlightAware Approximate
Fri 09:40:00 AM 64.0343 -27.7633 253° West  Level FlightAware Approximate
Fri 09:41:00 AM 64.0016 -28.0072 253° West  Level FlightAware Approximate
Fri 09:42:00 AM 63.9684 -28.2505 253° West  Level FlightAware Approximate
Fri 09:43:00 AM 63.9349 -28.4932 253° West  Level FlightAware Approximate
Fri 09:44:00 AM 63.9009 -28.7353 252° West  Level FlightAware Approximate
Fri 09:45:00 AM 63.8665 -28.9768 252° West  Level FlightAware Approximate
Fri 09:46:00 AM 63.8318 -29.2177 252° West  Level FlightAware Approximate
Fri 09:47:00 AM 63.7966 -29.4580 252° West  Level FlightAware Approximate
Fri 09:48:00 AM 63.7610 -29.6978 252° West  Level FlightAware Approximate
Fri 09:49:00 AM 63.7251 -29.9369 251° West  Level FlightAware Approximate
Fri 09:50:00 AM 63.6887 -30.1754 251° West  Level FlightAware Approximate
Fri 09:51:00 AM 63.6520 -30.4133 251° West  Level FlightAware Approximate
Fri 09:52:00 AM 63.6148 -30.6506 251° West  Level FlightAware Approximate
Fri 09:53:00 AM 63.5773 -30.8873 250° West  Level FlightAware Approximate
Fri 09:54:00 AM 63.5394 -31.1233 250° West  Level FlightAware Approximate
Fri 09:55:00 AM 63.5011 -31.3587 250° West  Level FlightAware Approximate
Fri 09:56:00 AM 63.4624 -31.5935 250° West  Level FlightAware Approximate
Fri 09:57:00 AM 63.4233 -31.8276 250° West  Level FlightAware Approximate
Fri 09:58:00 AM 63.3838 -32.0611 249° West  Level FlightAware Approximate
Fri 09:59:00 AM 63.3440 -32.2939 249° West  Level FlightAware Approximate
Fri 10:00:00 AM 63.3038 -32.5261 249° West  Level FlightAware Approximate
Fri 10:01:00 AM 63.2632 -32.7577 249° West  Level FlightAware Approximate
Fri 10:02:00 AM 63.2222 -32.9886 249° West  Level FlightAware Approximate
Fri 10:03:00 AM 63.1809 -33.2188 248° West  Level FlightAware Approximate
Fri 10:04:00 AM 63.1392 -33.4484 248° West  Level FlightAware Approximate
Fri 10:05:00 AM 63.0971 -33.6773 248° West  Level FlightAware Approximate
Fri 10:06:00 AM 63.0546 -33.9055 248° West  Level FlightAware Approximate
Fri 10:07:00 AM 63.0118 -34.1331 248° West  Level FlightAware Approximate
Fri 10:08:00 AM 62.9686 -34.3600 247° West  Level FlightAware Approximate
Fri 10:09:00 AM 62.9251 -34.5863 247° West  Level FlightAware Approximate
Fri 10:10:00 AM 62.8812 -34.8119 247° West  Level FlightAware Approximate
Fri 10:11:00 AM 62.8369 -35.0367 247° West  Level FlightAware Approximate
Fri 10:12:00 AM 62.7923 -35.2609 247° West  Level FlightAware Approximate
Fri 10:13:00 AM 62.7473 -35.4845 246° West  Level FlightAware Approximate
Fri 10:14:00 AM 62.7020 -35.7073 246° West  Level FlightAware Approximate
Fri 10:15:00 AM 62.6563 -35.9295 246° West  Level FlightAware Approximate
Fri 10:16:00 AM 62.6103 -36.1510 246° West  Level FlightAware Approximate
Fri 10:17:00 AM 62.5642 -36.3721 246° West  Level FlightAware Approximate
Fri 10:18:00 AM 62.5178 -36.5926 246° West  Level FlightAware Approximate
Fri 10:19:00 AM 62.4712 -36.8124 245° Southwest  Level FlightAware Approximate
Fri 10:20:00 AM 62.4241 -37.0315 245° Southwest  Level FlightAware Approximate
Fri 10:21:00 AM 62.3768 -37.2499 245° Southwest  Level FlightAware Approximate
Fri 10:22:00 AM 62.3291 -37.4677 245° Southwest  Level FlightAware Approximate
Fri 10:23:00 AM 62.2810 -37.6847 245° Southwest  Level FlightAware Approximate
Fri 10:24:00 AM 62.2326 -37.9011 244° Southwest  Level FlightAware Approximate
Fri 10:25:00 AM 62.1839 -38.1167 244° Southwest  Level FlightAware Approximate
Fri 10:26:00 AM 62.1348 -38.3317 244° Southwest  Level FlightAware Approximate
Fri 10:27:00 AM 62.0854 -38.5460 244° Southwest  Level FlightAware Approximate
Fri 10:28:00 AM 62.0357 -38.7595 244° Southwest  Level FlightAware Approximate
Fri 10:29:00 AM 61.9857 -38.9724 243° Southwest  Level FlightAware Approximate
Fri 10:30:00 AM 61.9353 -39.1845 243° Southwest  Level FlightAware Approximate
Fri 10:31:00 AM 61.8846 -39.3960 243° Southwest  Level FlightAware Approximate
Fri 10:32:00 AM 61.8336 -39.6068 243° Southwest  Level FlightAware Approximate
Fri 10:33:00 AM 61.7822 -39.8168 243° Southwest  Level FlightAware Approximate
Fri 10:34:00 AM 61.7306 -40.0262 243° Southwest  Level FlightAware Approximate
Fri 10:35:00 AM 61.6786 -40.2348 242° Southwest  Level FlightAware Approximate
Fri 10:36:00 AM 61.6263 -40.4428 242° Southwest  Level FlightAware Approximate
Fri 10:37:00 AM 61.5737 -40.6500 242° Southwest  Level FlightAware Approximate
Fri 10:38:00 AM 61.5208 -40.8566 242° Southwest  Level FlightAware Approximate
Fri 10:39:00 AM 61.4675 -41.0624 242° Southwest  Level FlightAware Approximate
Fri 10:40:00 AM 61.4140 -41.2675 241° Southwest  Level FlightAware Approximate
Fri 10:41:00 AM 61.3601 -41.4720 241° Southwest  Level FlightAware Approximate
Fri 10:42:00 AM 61.3060 -41.6757 241° Southwest  Level FlightAware Approximate
Fri 10:43:00 AM 61.2515 -41.8787 241° Southwest  Level FlightAware Approximate
Fri 10:44:00 AM 61.1968 -42.0810 241° Southwest  Level FlightAware Approximate
Fri 10:45:00 AM 61.1417 -42.2826 241° Southwest  Level FlightAware Approximate
Fri 10:46:00 AM 61.0863 -42.4836 240° Southwest  Level FlightAware Approximate
Fri 10:47:00 AM 61.0307 -42.6838 240° Southwest  Level FlightAware Approximate
Fri 10:48:00 AM 60.9747 -42.8833 240° Southwest  Level FlightAware Approximate
Fri 10:49:00 AM 60.9185 -43.0821 240° Southwest  Level FlightAware Approximate
Fri 10:50:00 AM 60.8619 -43.2802 240° Southwest  Level FlightAware Approximate
Fri 10:51:00 AM 60.8051 -43.4775 240° Southwest  Level FlightAware Approximate
Fri 10:52:00 AM 60.7480 -43.6742 239° Southwest  Level FlightAware Approximate
Fri 10:53:00 AM 60.6906 -43.8702 239° Southwest  Level FlightAware Approximate
Fri 10:54:00 AM 60.6329 -44.0655 239° Southwest  Level FlightAware Approximate
Fri 10:54:30 AM 63.3833 -55.9667 232° Southwest 310 357 34,000  Level Gander Center
Fri 10:55:00 AM 60.5749 -44.2601 239° Southwest  Level FlightAware Approximate
Fri 10:56:00 AM 60.4995 -44.4581 232° Southwest  Level Estimated
Fri 10:56:16 AM 63.2500 -56.3500 232° Southwest 350 403 34,000  Level Gander Center
Fri 10:57:00 AM 60.4238 -44.6555 232° Southwest  Level Estimated
Fri 10:57:16 AM 63.2000 -56.5833 245° Southwest 440 506 34,000  Level Gander Center
Fri 10:58:00 AM 60.3477 -44.8519 232° Southwest  Level Estimated
Fri 10:58:16 AM 63.1167 -56.8167 232° Southwest 450 518 34,000  Level Gander Center
Fri 10:59:00 AM 60.2714 -45.0474 232° Southwest  Level Estimated
Fri 10:59:16 AM 63.0500 -57.0500 238° Southwest 450 518 34,000  Level Gander Center
Fri 11:00:16 AM 62.9833 -57.2667 236° Southwest 440 506 34,000  Level Gander Center
Fri 11:01:16 AM 62.9000 -57.4667 228° Southwest 440 506 34,000  Level Gander Center
Fri 11:02:16 AM 62.8500 -57.6833 243° Southwest 440 506 34,000  Level Gander Center
Fri 11:03:16 AM 62.7667 -57.9167 232° Southwest 440 506 34,000  Level Gander Center
Fri 11:04:16 AM 62.7000 -58.1333 236° Southwest 440 506 34,000  Level Gander Center
Fri 11:05:16 AM 62.6500 -58.3667 245° Southwest 430 495 34,000  Level Gander Center
Fri 11:06:16 AM 62.5667 -58.5833 230° Southwest 440 506 34,000  Level Gander Center
Fri 11:07:03 AM 62.5167 -58.6833 223° Southwest 440 506 34,000  Level Montreal Center
Fri 11:08:03 AM 62.4333 -58.8833 228° Southwest 430 495 34,000 600 Level Montreal Center
Fri 11:09:03 AM 62.3667 -59.1000 237° Southwest 440 506 35,200 1,000 Climbing Montreal Center
Fri 11:10:03 AM 62.3000 -59.3333 238° Southwest 420 483 36,000 400 Climbing Montreal Center
Fri 11:11:03 AM 62.2333 -59.5167 232° Southwest 430 495 36,000  Level Montreal Center
Fri 11:12:03 AM 62.1667 -59.7333 237° Southwest 430 495 36,000  Level Montreal Center
Fri 11:13:03 AM 62.0833 -59.9167 226° Southwest 430 495 36,000  Level Montreal Center
Fri 11:14:03 AM 62.0167 -60.1333 237° Southwest 430 495 36,000  Level Montreal Center
Fri 11:15:03 AM 61.9500 -60.3500 237° Southwest 430 495 36,000  Level Montreal Center
Fri 11:16:03 AM 61.8833 -60.5333 232° Southwest 430 495 36,000  Level Montreal Center
Fri 11:17:03 AM 61.8000 -60.7500 231° Southwest 420 483 36,000  Level Montreal Center
Fri 11:18:03 AM 61.7333 -60.9333 233° Southwest 420 483 36,000  Level Montreal Center
Fri 11:19:03 AM 61.6500 -61.1500 231° Southwest 420 483 36,000  Level Montreal Center
Fri 11:20:03 AM 61.5833 -61.3167 230° Southwest 420 483 36,000  Level Montreal Center
Fri 11:21:03 AM 61.5333 -61.5333 244° Southwest 420 483 36,000  Level Montreal Center
Fri 11:22:03 AM 61.4500 -61.7167 226° Southwest 420 483 36,000  Level Montreal Center
Fri 11:23:03 AM 61.3833 -61.9167 235° Southwest 430 495 36,000  Level Montreal Center
Fri 11:24:03 AM 61.3000 -62.1000 227° Southwest 420 483 36,000  Level Montreal Center
Fri 11:25:03 AM 61.2333 -62.3000 235° Southwest 430 495 36,000  Level Montreal Center
Fri 11:26:03 AM 61.1500 -62.5167 231° Southwest 430 495 36,000  Level Montreal Center
Fri 11:27:03 AM 61.0833 -62.6833 230° Southwest 430 495 36,000  Level Montreal Center
Fri 11:28:41 AM 60.9500 -63.0667 234° Southwest 430 495 36,000  Level Gander Center
Fri 11:29:16 AM 60.9167 -63.2000 243° Southwest 420 483 36,000  Level Gander Center
Fri 11:30:03 AM 60.8667 -63.2667 213° Southwest 450 518 36,000  Level Montreal Center
Fri 11:31:03 AM 60.7833 -63.4333 224° Southwest 420 483 36,000  Level Montreal Center
Fri 11:32:03 AM 60.7167 -63.6333 236° Southwest 420 483 36,000  Level Montreal Center
Fri 11:33:03 AM 60.6333 -63.8000 224° Southwest 410 472 36,000  Level Montreal Center
Fri 11:34:03 AM 60.5500 -64.0000 230° Southwest 410 472 36,000  Level Montreal Center
Fri 11:35:03 AM 60.4833 -64.2000 236° Southwest 410 472 36,000  Level Montreal Center
Fri 11:36:03 AM 60.4167 -64.3667 231° Southwest 410 472 36,000  Level Montreal Center
Fri 11:37:03 AM 60.3500 -64.5167 228° Southwest 410 472 36,000  Level Montreal Center
Fri 11:38:03 AM 60.2833 -64.7167 236° Southwest 410 472 36,000  Level Montreal Center
Fri 11:39:03 AM 60.2000 -64.8833 225° Southwest 410 472 36,000  Level Montreal Center
Fri 11:40:03 AM 60.1167 -65.0500 225° Southwest 410 472 36,000  Level Montreal Center
Fri 11:41:03 AM 60.0500 -65.2000 228° Southwest 410 472 36,000  Level Montreal Center
Fri 11:42:03 AM 59.9500 -65.3667 220° Southwest 410 472 36,000  Level Montreal Center
Fri 11:43:03 AM 59.8667 -65.5000 219° Southwest 400 460 36,000  Level Montreal Center
Fri 11:44:03 AM 59.7833 -65.6500 222° Southwest 400 460 36,000  Level Montreal Center
Fri 11:45:03 AM 59.7000 -65.7833 219° Southwest 400 460 36,000  Level Montreal Center
Fri 11:46:03 AM 59.6167 -65.9333 222° Southwest 400 460 36,000  Level Montreal Center
Fri 11:47:03 AM 59.5333 -66.1000 225° Southwest 400 460 36,000  Level Montreal Center
Fri 11:48:03 AM 59.4500 -66.2167 215° Southwest 400 460 36,000  Level Montreal Center
Fri 11:49:03 AM 59.3667 -66.3833 226° Southwest 400 460 36,000  Level Montreal Center
Fri 11:50:03 AM 59.2833 -66.5000 216° Southwest 400 460 36,000  Level Montreal Center
Fri 11:51:03 AM 59.2000 -66.6500 223° Southwest 400 460 36,000  Level Montreal Center
Fri 11:52:03 AM 59.1167 -66.7833 219° Southwest 400 460 36,000  Level Montreal Center
Fri 11:53:03 AM 59.0167 -66.9333 218° Southwest 400 460 36,000  Level Montreal Center
Fri 11:54:03 AM 58.9500 -67.0500 222° Southwest 390 449 36,000  Level Montreal Center
Fri 11:55:03 AM 58.8500 -67.2000 218° Southwest 390 449 36,000  Level Montreal Center
Fri 11:56:03 AM 58.7833 -67.3167 222° Southwest 390 449 36,000  Level Montreal Center
Fri 11:57:03 AM 58.7000 -67.4667 223° Southwest 390 449 36,000  Level Montreal Center
Fri 11:58:03 AM 58.6000 -67.5833 211° Southwest 390 449 36,000  Level Montreal Center
Fri 11:59:03 AM 58.5167 -67.7333 223° Southwest 390 449 36,000  Level Montreal Center
Fri 12:00:03 PM 58.4333 -67.8833 223° Southwest 390 449 36,000  Level Montreal Center
Fri 12:01:03 PM 58.3500 -68.0000 216° Southwest 390 449 36,000  Level Montreal Center
Fri 12:02:03 PM 58.2667 -68.1500 223° Southwest 400 460 36,000  Level Montreal Center
Fri 12:03:03 PM 58.1833 -68.3000 224° Southwest 410 472 36,000  Level Montreal Center
Fri 12:05:03 PM 58.0000 -68.5167 212° Southwest 400 460 36,000  Level Montreal Center
Fri 12:06:03 PM 57.9333 -68.6333 223° Southwest 390 449 36,000  Level Montreal Center
Fri 12:07:03 PM 57.8333 -68.7500 212° Southwest 390 449 36,000  Level Montreal Center
Fri 12:08:03 PM 57.7333 -68.9000 219° Southwest 390 449 36,000  Level Montreal Center
Fri 12:09:03 PM 57.6667 -69.0000 219° Southwest 390 449 36,000  Level Montreal Center
Fri 12:10:03 PM 57.5667 -69.1167 212° Southwest 390 449 36,000  Level Montreal Center
Fri 12:11:03 PM 57.4833 -69.2333 217° Southwest 390 449 36,000  Level Montreal Center
Fri 12:12:03 PM 57.4000 -69.3333 213° Southwest 380 437 36,000  Level Montreal Center
Fri 12:13:03 PM 57.3167 -69.4833 224° Southwest 390 449 36,000  Level Montreal Center
Fri 12:14:03 PM 57.2167 -69.5833 208° Southwest 390 449 36,000  Level Montreal Center
Fri 12:15:03 PM 57.1333 -69.7000 217° Southwest 380 437 36,000  Level Montreal Center
Fri 12:16:03 PM 57.0500 -69.8000 213° Southwest 380 437 36,000  Level Montreal Center
Fri 12:17:03 PM 56.9667 -69.9000 213° Southwest 380 437 36,000  Level Montreal Center
Fri 12:18:03 PM 56.8667 -70.0500 219° Southwest 390 449 36,000  Level Montreal Center
Fri 12:19:03 PM 56.7667 -70.1500 209° Southwest 380 437 36,000  Level Montreal Center
Fri 12:20:03 PM 56.7000 -70.2500 219° Southwest 380 437 36,000  Level Montreal Center
Fri 12:21:03 PM 56.6167 -70.3667 218° Southwest 380 437 36,000  Level Montreal Center
Fri 12:22:03 PM 56.5167 -70.5000 216° Southwest 370 426 36,000  Level Montreal Center
Fri 12:23:03 PM 56.4333 -70.6000 214° Southwest 380 437 36,000  Level Montreal Center
Fri 12:24:03 PM 56.3500 -70.7000 214° Southwest 380 437 36,000  Level Montreal Center
Fri 12:25:03 PM 56.2667 -70.8000 214° Southwest 380 437 36,000  Level Montreal Center
Fri 12:26:03 PM 56.1667 -70.9167 213° Southwest 380 437 36,000  Level Montreal Center
Fri 12:27:03 PM 56.0833 -71.0167 214° Southwest 380 437 36,000  Level Montreal Center
Fri 12:28:03 PM 56.0000 -71.1167 214° Southwest 380 437 36,000  Level Montreal Center
Fri 12:29:03 PM 55.9167 -71.2167 214° Southwest 370 426 36,000  Level Montreal Center
Fri 12:30:03 PM 55.8167 -71.3500 217° Southwest 380 437 36,000  Level Montreal Center
Fri 12:31:03 PM 55.7333 -71.4500 214° Southwest 380 437 36,000  Level Montreal Center
Fri 12:32:03 PM 55.6500 -71.5500 214° Southwest 370 426 36,000  Level Montreal Center
Fri 12:33:03 PM 55.5500 -71.6500 210° Southwest 380 437 36,000  Level Montreal Center
Fri 12:34:03 PM 55.4667 -71.7500 214° Southwest 370 426 36,000  Level Montreal Center
Fri 12:35:03 PM 55.3667 -71.8500 210° Southwest 380 437 36,000  Level Montreal Center
Fri 12:36:03 PM 55.3000 -71.9333 215° Southwest 380 437 36,000  Level Montreal Center
Fri 12:37:03 PM 55.2167 -72.0333 214° Southwest 380 437 36,000  Level Montreal Center
Fri 12:38:03 PM 55.1167 -72.1667 217° Southwest 380 437 36,000  Level Montreal Center
Fri 12:39:03 PM 55.0333 -72.2667 215° Southwest 380 437 36,000  Level Montreal Center
Fri 12:40:03 PM 54.9333 -72.3500 206° Southwest 380 437 36,000  Level Montreal Center
Fri 12:41:03 PM 54.8500 -72.4500 215° Southwest 370 426 36,000  Level Montreal Center
Fri 12:42:03 PM 54.7500 -72.5500 210° Southwest 380 437 36,000  Level Montreal Center
Fri 12:43:03 PM 54.6667 -72.6500 215° Southwest 380 437 36,000  Level Montreal Center
Fri 12:44:03 PM 54.6000 -72.7333 216° Southwest 370 426 36,000  Level Montreal Center
Fri 12:45:03 PM 54.5000 -72.8333 210° Southwest 370 426 36,000  Level Montreal Center
Fri 12:46:03 PM 54.4167 -72.9500 219° Southwest 370 426 36,000  Level Montreal Center
Fri 12:47:03 PM 54.3333 -73.0500 215° Southwest 370 426 36,000  Level Montreal Center
Fri 12:48:03 PM 54.2333 -73.1333 206° Southwest 380 437 36,000  Level Montreal Center
Fri 12:49:03 PM 54.1500 -73.2333 215° Southwest 380 437 36,000  Level Montreal Center
Fri 12:50:03 PM 54.0500 -73.3167 206° Southwest 370 426 36,000  Level Montreal Center
Fri 12:51:03 PM 53.9667 -73.4167 215° Southwest 370 426 36,000  Level Montreal Center
Fri 12:52:03 PM 53.8833 -73.5000 211° Southwest 370 426 36,000  Level Montreal Center
Fri 12:53:03 PM 53.7833 -73.6000 211° Southwest 380 437 36,000  Level Montreal Center
Fri 12:54:03 PM 53.6833 -73.7167 215° Southwest 380 437 36,000  Level Montreal Center
Fri 12:55:03 PM 53.6000 -73.7833 205° Southwest 380 437 36,000  Level Montreal Center
Fri 12:56:03 PM 53.5000 -73.8667 206° Southwest 380 437 36,000  Level Montreal Center
Fri 12:57:03 PM 53.4000 -73.9500 206° Southwest 380 437 36,000  Level Montreal Center
Fri 12:58:03 PM 53.3167 -74.0167 206° Southwest 380 437 36,000  Level Montreal Center
Fri 12:59:03 PM 53.2167 -74.1000 207° Southwest 380 437 36,000  Level Montreal Center
Fri 01:00:03 PM 53.1167 -74.2000 211° Southwest 380 437 36,000  Level Montreal Center
Fri 01:01:03 PM 53.0167 -74.2500 197° South 390 449 36,000  Level Montreal Center
Fri 01:02:03 PM 52.9500 -74.3500 222° Southwest 390 449 36,000  Level Montreal Center
Fri 01:03:03 PM 52.8500 -74.4333 207° Southwest 390 449 36,000  Level Montreal Center
Fri 01:04:03 PM 52.7333 -74.4833 195° South 390 449 36,000  Level Montreal Center
Fri 01:05:03 PM 52.6500 -74.5833 216° Southwest 390 449 36,000  Level Montreal Center
Fri 01:06:03 PM 52.5500 -74.6667 207° Southwest 400 460 36,000  Level Montreal Center
Fri 01:07:03 PM 52.4333 -74.7500 204° Southwest 390 449 36,000  Level Montreal Center
Fri 01:08:03 PM 52.3333 -74.8000 197° South 390 449 36,000  Level Montreal Center
Fri 01:09:03 PM 52.2333 -74.9000 211° Southwest 380 437 36,000  Level Montreal Center
Fri 01:10:03 PM 52.1333 -74.9833 207° Southwest 390 449 36,000  Level Montreal Center
Fri 01:11:03 PM 52.0333 -75.0667 207° Southwest 390 449 36,000  Level Montreal Center
Fri 01:12:03 PM 51.9333 -75.1167 197° South 400 460 36,000  Level Montreal Center
Fri 01:13:03 PM 51.8333 -75.2000 207° Southwest 400 460 36,000  Level Montreal Center
Fri 01:14:03 PM 51.7333 -75.2833 207° Southwest 390 449 36,000  Level Montreal Center
Fri 01:15:03 PM 51.6500 -75.3667 212° Southwest 390 449 36,000  Level Montreal Center
Fri 01:16:03 PM 51.5500 -75.4500 207° Southwest 390 449 36,000  Level Montreal Center
Fri 01:17:03 PM 51.4500 -75.5000 197° South 400 460 36,000  Level Montreal Center
Fri 01:18:03 PM 51.3333 -75.5833 204° Southwest 400 460 36,000  Level Montreal Center
Fri 01:19:03 PM 51.2500 -75.6667 212° Southwest 400 460 36,000  Level Montreal Center
Fri 01:20:03 PM 51.1333 -75.7500 204° Southwest 400 460 36,000  Level Montreal Center
Fri 01:21:03 PM 51.0333 -75.8333 208° Southwest 400 460 36,000  Level Montreal Center
Fri 01:22:03 PM 50.9333 -75.8833 197° South 400 460 36,000  Level Montreal Center
Fri 01:23:03 PM 50.8333 -75.9667 208° Southwest 400 460 36,000  Level Montreal Center
Fri 01:24:03 PM 50.7333 -76.0500 208° Southwest 400 460 36,000  Level Montreal Center
Fri 01:25:03 PM 50.6333 -76.1167 203° Southwest 410 472 36,000  Level Montreal Center
Fri 01:26:03 PM 50.5333 -76.2000 208° Southwest 400 460 36,000  Level Montreal Center
Fri 01:27:03 PM 50.4333 -76.2833 208° Southwest 410 472 36,000  Level Montreal Center
Fri 01:28:03 PM 50.3333 -76.3333 198° South 410 472 36,000  Level Montreal Center
Fri 01:29:03 PM 50.2167 -76.4167 205° Southwest 410 472 36,000  Level Montreal Center
Fri 01:30:03 PM 50.1000 -76.4833 200° South 410 472 36,000  Level Montreal Center
Fri 01:31:03 PM 50.0000 -76.5667 208° Southwest 410 472 36,000  Level Montreal Center
Fri 01:32:03 PM 49.9000 -76.6500 208° Southwest 410 472 36,000  Level Montreal Center
Fri 01:33:03 PM 49.7833 -76.7167 200° South 410 472 36,000  Level Montreal Center
Fri 01:34:03 PM 49.6833 -76.8000 208° Southwest 410 472 36,000  Level Montreal Center
Fri 01:35:03 PM 49.5833 -76.8667 203° Southwest 410 472 36,000  Level Montreal Center
Fri 01:36:03 PM 49.4833 -76.9500 208° Southwest 400 460 36,000  Level Montreal Center
Fri 01:37:03 PM 49.3667 -77.0000 196° South 440 506 36,000  Level Montreal Center
Fri 01:38:03 PM 49.2667 -77.1000 213° Southwest 400 460 36,000  Level Montreal Center
Fri 01:39:03 PM 49.1667 -77.1500 198° South 410 472 36,000  Level Montreal Center
Fri 01:40:03 PM 49.0667 -77.2167 204° Southwest 420 483 36,000  Level Montreal Center
Fri 01:41:03 PM 48.9667 -77.3000 209° Southwest 420 483 36,000  Level Montreal Center
Fri 01:42:03 PM 48.8333 -77.3667 198° South 420 483 36,000  Level Montreal Center
Fri 01:43:03 PM 48.7333 -77.4500 209° Southwest 410 472 36,000  Level Montreal Center
Fri 01:44:03 PM 48.6333 -77.5167 204° Southwest 420 483 36,000  Level Montreal Center
Fri 01:45:03 PM 48.5167 -77.5833 201° Southwest 420 483 36,000  Level Montreal Center
Fri 01:46:03 PM 48.4167 -77.6667 209° Southwest 420 483 36,000  Level Montreal Center
Fri 01:47:03 PM 48.3000 -77.7333 201° Southwest 420 483 36,000  Level Montreal Center
Fri 01:48:03 PM 48.2000 -77.8000 204° Southwest 420 483 36,000  Level Montreal Center
Fri 01:49:03 PM 48.0833 -77.8833 206° Southwest 420 483 36,000  Level Montreal Center
Fri 01:50:03 PM 47.9667 -77.9500 201° Southwest 430 495 36,000  Level Montreal Center
Fri 01:51:03 PM 47.8667 -78.0000 199° South 430 495 36,000  Level Montreal Center
Fri 01:52:03 PM 47.7500 -78.0667 201° Southwest 430 495 36,000  Level Montreal Center
Fri 01:53:03 PM 47.6500 -78.1333 204° Southwest 430 495 36,000  Level Montreal Center
Fri 01:54:03 PM 47.5333 -78.2000 201° Southwest 430 495 36,000  Level Montreal Center
Fri 01:55:03 PM 47.4167 -78.2500 196° South 430 495 36,000  Level Montreal Center
Fri 01:56:03 PM 47.3000 -78.3167 201° Southwest 430 495 36,000  Level Montreal Center
Fri 01:57:03 PM 47.2000 -78.3833 204° Southwest 430 495 36,000  Level Montreal Center
Fri 01:58:03 PM 47.0667 -78.4500 199° South 430 495 36,000  Level Montreal Center
Fri 01:59:03 PM 46.9667 -78.5333 210° Southwest 440 506 36,000  Level Montreal Center
Fri 02:00:03 PM 46.8500 -78.5667 191° South 440 506 36,000  Level Montreal Center
Fri 02:01:03 PM 46.7333 -78.6333 201° Southwest 440 506 36,000  Level Montreal Center
Fri 02:02:03 PM 46.6333 -78.7000 205° Southwest 440 506 36,000  Level Montreal Center
Fri 02:03:03 PM 46.5167 -78.7667 201° Southwest 430 495 36,000  Level Montreal Center
Fri 02:04:03 PM 46.4000 -78.8333 202° Southwest 440 506 36,000  Level Montreal Center
Fri 02:05:03 PM 46.2833 -78.9000 202° Southwest 440 506 36,000  Level Montreal Center
Fri 02:06:03 PM 46.1667 -78.9667 202° Southwest 440 506 36,000  Level Montreal Center
Fri 02:07:03 PM 46.0500 -79.0167 197° South 440 506 36,000  Level Montreal Center
Fri 02:08:03 PM 45.9333 -79.0833 202° Southwest 440 506 36,000  Level Montreal Center
Fri 02:13:38 PM 45.6091 -79.2571 202° Southwest 443 510 36,000  Level FlightAware ADS-B
Fri 02:15:59 PM 45.0348 -79.5593 200° South 441 507 36,000  Level FlightAware ADS-B
Fri 02:16:44 PM 44.9486 -79.6043 200° South 442 509 36,000  Level FlightAware ADS-B (EPLB / LUZ)
Fri 02:17:24 PM 44.8678 -79.6462 200° South 442 509 36,000  Level FlightAware ADS-B (EPLB / LUZ)
Fri 02:18:16 PM 44.7692 -79.6971 200° South 446 513 36,000  Level FlightAware ADS-B (EPLB / LUZ)
Fri 02:18:56 PM 44.6897 -79.7380 200° South 447 514 36,000  Level FlightAware ADS-B (EPLB / LUZ)
Fri 02:19:32 PM 44.6297 -79.7690 200° South 449 517 36,000  Level FlightAware ADS-B (EPLB / LUZ)
Fri 02:20:12 PM 44.5457 -79.8247 205° Southwest 447 514 36,000  Level FlightAware ADS-B (EPLB / LUZ)
Fri 02:20:43 PM 44.5086 -79.8575 212° Southwest 444 511 36,000  Level FlightAware ADS-B (EPLB / LUZ)
Fri 02:20:53 PM 44.4754 -79.8884 214° Southwest 445 512 36,000  Level FlightAware ADS-B (CYKF)
Fri 02:21:28 PM 44.4141 -79.9445 213° Southwest 445 512 36,000  Level FlightAware ADS-B (EPLB / LUZ)
Fri 02:22:00 PM 44.3587 -79.9947 213° Southwest 444 511 36,000  Level FlightAware ADS-B (EPLB / LUZ)
Fri 02:22:40 PM 44.2910 -80.0553 213° Southwest 443 510 36,000  Level FlightAware ADS-B (EPLB / LUZ)
Fri 02:23:16 PM 44.2418 -80.0993 213° Southwest 444 511 36,000  Level FlightAware ADS-B (EPLB / LUZ)
Fri 02:23:47 PM 44.1747 -80.1592 213° Southwest 445 512 36,000  Level FlightAware ADS-B (CYKF)
Fri 02:24:21 PM 44.1159 -80.2115 213° Southwest 445 512 36,000  Level FlightAware ADS-B (CYKF)
Fri 02:25:12 PM 44.0282 -80.2892 213° Southwest 443 510 36,000  Level FlightAware ADS-B (EPLB / LUZ)
Fri 02:26:04 PM 43.9384 -80.3686 212° Southwest 440 506 36,000  Level FlightAware ADS-B (EPLB / LUZ)
Fri 02:26:43 PM 43.8722 -80.4269 212° Southwest 440 506 36,000  Level FlightAware ADS-B
Fri 02:27:00 PM 43.8418 -80.4537 212° Southwest 441 507 36,000  Level FlightAware ADS-B
Fri 02:27:39 PM 43.7767 -80.5108 212° Southwest 443 510 36,000  Level FlightAware ADS-B (EPLB / LUZ)
Fri 02:28:22 PM 43.7021 -80.5762 212° Southwest 441 507 36,000  Level FlightAware ADS-B
Fri 02:28:52 PM 43.6932 -80.5839 212° Southwest 438 504 36,000  Level FlightAware ADS-B (CYKF)
Fri 02:29:32 PM 43.5812 -80.6815 212° Southwest 436 502 36,000  Level FlightAware ADS-B (CYKF)
Fri 02:30:07 PM 43.5427 -80.7150 212° Southwest 435 501 36,000  Level FlightAware ADS-B (EPLB / LUZ)
Fri 02:30:55 PM 43.4483 -80.7968 212° Southwest 436 502 36,000  Level FlightAware ADS-B (EPLB / LUZ)
Fri 02:31:39 PM 43.3691 -80.8652 212° Southwest 436 502 36,000  Level FlightAware ADS-B (EPLB / LUZ)
Fri 02:32:20 PM 43.2966 -80.9277 212° Southwest 435 501 36,000  Level FlightAware ADS-B (EPLB / LUZ)
Fri 02:32:59 PM 43.2334 -80.9820 212° Southwest 432 497 36,000  Level FlightAware ADS-B (EPLB / LUZ)
Fri 02:33:29 PM 43.1782 -81.0293 212° Southwest 430 495 36,000  Level FlightAware ADS-B (CYKF)
Fri 02:34:03 PM 43.1456 -81.0572 212° Southwest 430 495 36,000  Level FlightAware ADS-B (EPLB / LUZ)
Fri 02:34:34 PM 43.0712 -81.1207 212° Southwest 430 495 36,000  Level FlightAware ADS-B (EPLB / LUZ)
Fri 02:34:46 PM 43.0556 -81.1338 212° Southwest 436 502 36,000  Level FlightAware ADS-B (CYKF)
Fri 02:35:16 PM 42.9952 -81.1741 206° Southwest 437 503 36,000  Level FlightAware ADS-B (EPLB / LUZ)
Fri 02:35:46 PM 42.9490 -81.2026 204° Southwest 436 502 36,000  Level FlightAware ADS-B (CYKF)
Fri 02:36:23 PM 42.8712 -81.2519 205° Southwest 437 503 36,000  Level FlightAware ADS-B (EPLB / LUZ)
Fri 02:37:03 PM 42.8125 -81.2884 204° Southwest 437 503 36,000  Level FlightAware ADS-B (EPLB / LUZ)
Fri 02:37:33 PM 42.7682 -81.3157 204° Southwest 438 504 36,000  Level FlightAware ADS-B (CYKF)
Fri 02:38:40 PM 42.6181 -81.4077 204° Southwest 437 503 36,000  Level FlightAware ADS-B (EPLB / LUZ)
Fri 02:39:13 PM 42.5624 -81.4417 204° Southwest 430 495 36,000  Level FlightAware ADS-B (EPLB / LUZ)
Fri 02:39:46 PM 42.5624 -81.4417 204° Southwest 438 504 36,000  Level FlightAware ADS-B (EPLB / LUZ)
Fri 02:40:20 PM 42.4402 -81.5162 204° Southwest 429 494 36,000  Level FlightAware ADS-B (EPLB / LUZ)
Fri 02:41:35 PM 42.3417 -81.5757 204° Southwest 427 491 36,000  Level FlightAware ADS-B (EPLB / LUZ)
Fri 02:42:14 PM 42.2167 -81.6333 204° Southwest 430 495 36,000  Level Toronto Center
Fri 02:43:04 PM 42.1581 -81.6861 214° Southwest 434 499 36,000  Level Cleveland Center
Fri 02:44:06 PM 42.0303 -81.7633 204° Southwest 430 495 36,000  Level Cleveland Center
Fri 02:45:08 PM 41.9197 -81.8294 204° Southwest 431 496 36,000  Level Cleveland Center
Fri 02:46:10 PM 41.8097 -81.8958 204° Southwest 431 496 36,000  Level Cleveland Center
Fri 02:47:12 PM 41.7000 -81.9611 204° Southwest 431 496 36,000  Level Cleveland Center
Fri 02:48:14 PM 41.5889 -82.0256 203° Southwest 433 498 36,000  Level Cleveland Center
Fri 02:49:16 PM 41.4794 -82.0903 204° Southwest 430 495 36,000  Level Cleveland Center
Fri 02:50:18 PM 41.3531 -82.1625 203° Southwest 426 490 36,000  Level Cleveland Center
Fri 02:51:20 PM 41.2358 -82.2039 195° South 434 499 36,000  Level Cleveland Center
Fri 02:52:22 PM 41.1203 -82.2472 196° South 433 498 36,000  Level Cleveland Center
Fri 02:53:25 PM 41.0031 -82.2897 195° South 433 498 36,000  Level Cleveland Center
Fri 02:54:27 PM 40.8872 -82.3303 195° South 430 495 36,000  Level Cleveland Center
Fri 02:55:29 PM 40.7519 -82.3775 195° South 428 493 36,000  Level Cleveland Center
Fri 02:56:31 PM 40.6361 -82.4186 195° South 428 493 36,000  Level Cleveland Center
Fri 03:02:41 PM 39.9091 -82.6049 195° South 445 512 36,000  Level FlightAware ADS-B
Fri 03:03:47 PM 39.7733 -82.6141 183° South 448 516 36,000  Level FlightAware ADS-B
Fri 03:04:27 PM 39.6888 -82.6197 183° South 451 519 36,000  Level FlightAware ADS-B
Fri 03:05:07 PM 39.6033 -82.6255 183° South 453 521 36,000  Level FlightAware ADS-B
Fri 03:05:37 PM 39.5407 -82.6298 183° South 456 525 36,000  Level FlightAware ADS-B
Fri 03:08:05 PM 39.2297 -82.6505 183° South 458 527 36,000  Level FlightAware ADS-B
Fri 03:08:57 PM 39.2485 -82.6492 North 450 518 36,000  Level FlightAware ADS-B
Fri 03:09:57 PM 38.9929 -82.6661 183° South 457 526 36,000  Level FlightAware ADS-B
Fri 03:10:36 PM 38.9104 -82.6715 183° South 454 522 36,000  Level FlightAware ADS-B
Fri 03:11:17 PM 38.8247 -82.6772 183° South 453 521 36,000  Level FlightAware ADS-B
Fri 03:11:54 PM 38.7464 -82.6824 183° South 451 519 36,000  Level FlightAware ADS-B
Fri 03:12:26 PM 38.6833 -82.6866 183° South 451 519 36,000  Level FlightAware ADS-B
Fri 03:13:21 PM 38.5897 -82.6919 183° South 450 518 36,000  Level Indianapolis Center
Fri 03:14:23 PM 38.4439 -82.7019 183° South 449 517 36,000  Level Indianapolis Center
Fri 03:15:25 PM 38.3200 -82.7100 183° South 445 512 36,000  Level Indianapolis Center
Fri 03:16:27 PM 38.1956 -82.7197 184° South 446 513 36,000  Level Indianapolis Center
Fri 03:17:30 PM 38.0722 -82.7272 183° South 444 511 36,000  Level Indianapolis Center
Fri 03:18:32 PM 37.9506 -82.7339 182° South 439 505 36,000  Level Indianapolis Center
Fri 03:19:34 PM 37.8086 -82.7447 183° South 437 503 36,000  Level Indianapolis Center
Fri 03:20:36 PM 37.6889 -82.7608 186° South 435 501 36,000  Level Indianapolis Center
Fri 03:21:38 PM 37.5797 -82.8147 201° Southwest 422 486 36,000  Level Indianapolis Center
Fri 03:22:40 PM 37.4794 -82.8839 209° Southwest 413 475 36,000  Level Indianapolis Center
Fri 03:23:42 PM 37.3775 -82.9503 207° Southwest 413 475 36,000  Level Indianapolis Center
Fri 03:24:44 PM 37.2592 -83.0269 207° Southwest 412 474 36,000  Level Indianapolis Center
Fri 03:25:46 PM 37.1578 -83.0922 207° Southwest 411 473 36,000  Level Indianapolis Center
Fri 03:26:48 PM 37.0586 -83.1564 207° Southwest 408 470 36,000  Level Indianapolis Center
Fri 03:27:50 PM 36.9594 -83.2231 208° Southwest 407 468 36,000  Level Indianapolis Center
Fri 03:28:52 PM 36.8403 -83.2997 207° Southwest 412 474 36,000  Level Indianapolis Center
Fri 03:29:54 PM 36.7386 -83.3656 207° Southwest 414 476 36,000  Level Indianapolis Center
Fri 03:30:56 PM 36.6372 -83.4314 208° Southwest 412 474 36,000  Level Indianapolis Center
Fri 03:31:58 PM 36.5353 -83.4947 207° Southwest 410 472 36,000  Level Indianapolis Center
Fri 03:33:00 PM 36.4311 -83.5597 207° Southwest 410 472 36,000  Level Indianapolis Center
Fri 03:34:02 PM 36.3303 -83.6239 207° Southwest 407 468 36,000  Level Indianapolis Center
Fri 03:35:05 PM 36.2303 -83.6878 207° Southwest 404 465 36,000  Level Indianapolis Center
Fri 03:36:06 PM 36.1111 -83.7636 207° Southwest 401 461 36,000  Level Indianapolis Center
Fri 03:36:59 PM 36.0247 -83.8181 207° Southwest 407 468 36,000  Level Atlanta Center
Fri 03:37:59 PM 35.9267 -83.8797 207° Southwest 407 468 36,000  Level Atlanta Center
Fri 03:38:59 PM 35.8161 -83.9183 196° South 407 468 36,000  Level Atlanta Center
Fri 03:39:59 PM 35.7036 -83.9467 192° South 407 468 36,000  Level Atlanta Center
Fri 03:40:59 PM 35.5911 -83.9750 192° South 413 475 36,000  Level Atlanta Center
Fri 03:46:28 PM 34.9633 -84.1220 192° South 413 475 36,000  Level FlightAware ADS-B (KDZJ)
Fri 03:47:07 PM 34.8880 -84.1398 191° South 411 473 36,000  Level FlightAware ADS-B (KDZJ)
Fri 03:47:48 PM 34.8123 -84.1578 191° South 410 472 36,000 -561 Level FlightAware ADS-B (KDZJ)
Fri 03:48:54 PM 34.6851 -84.1881 191° South 409 471 35,000 -600 Descending FlightAware ADS-B (KDZJ)
Fri 03:49:28 PM 34.6204 -84.2033 191° South 407 468 35,000  Level FlightAware ADS-B (KDZJ)
Fri 03:50:03 PM 34.5574 -84.2182 191° South 409 471 35,000  Level FlightAware ADS-B (KDZJ)
Fri 03:50:48 PM 34.4708 -84.2387 191° South 398 458 35,000  Level FlightAware ADS-B (KDZJ)
Fri 03:51:28 PM 34.3982 -84.2559 191° South 407 468 35,000  Level FlightAware ADS-B (KDZJ)
Fri 03:52:08 PM 34.3236 -84.2735 191° South 408 470 35,000  Level FlightAware ADS-B (KDZJ)
Fri 03:52:48 PM 34.2496 -84.2908 191° South 409 471 35,000  Level FlightAware ADS-B (KDZJ)
Fri 03:53:29 PM 34.1745 -84.3081 191° South 409 471 35,000  Level FlightAware ADS-B (KDZJ)
Fri 03:54:08 PM 34.1021 -84.3251 191° South 408 470 35,000  Level FlightAware ADS-B (KDZJ)
Fri 03:54:49 PM 34.0261 -84.3430 191° South 409 471 35,000  Level FlightAware ADS-B (KDZJ)
Fri 03:55:59 PM 33.9128 -84.3717 191° South 407 468 35,000  Level Atlanta Center
Fri 03:56:59 PM 33.7978 -84.3989 191° South 414 476 35,000  Level Atlanta Center
Fri 03:57:59 PM 33.6850 -84.4233 190° South 414 476 35,000  Level Atlanta Center
Fri 03:58:59 PM 33.5536 -84.4378 185° South 428 493 35,000  Level Atlanta Center
Fri 03:59:59 PM 33.4325 -84.4344 179° South 433 498 35,000  Level Atlanta Center
Fri 04:00:59 PM 33.3156 -84.4342 180° South 433 498 35,000  Level Atlanta Center
Fri 04:01:59 PM 33.1967 -84.4311 179° South 428 493 35,000  Level Atlanta Center
Fri 04:02:59 PM 33.0797 -84.4281 179° South 428 493 35,000  Level Atlanta Center
Fri 04:03:59 PM 32.9628 -84.4250 179° South 417 480 35,000  Level Atlanta Center
Fri 04:04:59 PM 32.8439 -84.4244 180° South 422 486 35,000  Level Atlanta Center
Fri 04:05:59 PM 32.7250 -84.4192 178° South 422 486 35,000  Level Atlanta Center
Fri 04:06:59 PM 32.6061 -84.4161 179° South 422 486 35,000  Level Atlanta Center
Fri 04:07:59 PM 32.4828 -84.4156 180° South 422 486 35,000  Level Atlanta Center
Fri 04:08:59 PM 32.3617 -84.4103 178° South 429 494 35,000  Level Atlanta Center
Fri 04:09:59 PM 32.2386 -84.4097 180° South 440 506 35,000  Level Atlanta Center
Fri 04:10:59 PM 32.1133 -84.4067 179° South 440 506 35,000  Level Atlanta Center
Fri 04:12:11 PM 31.9656 -84.4011 178° South 440 506 35,000  Level Jacksonville Center
Fri 04:13:11 PM 31.8381 -84.3989 179° South 440 506 35,000  Level Jacksonville Center
Fri 04:14:11 PM 31.7128 -84.3969 179° South 446 513 35,000  Level Jacksonville Center
Fri 04:15:11 PM 31.5878 -84.3925 178° South 446 513 35,000  Level Jacksonville Center
Fri 04:16:11 PM 31.4603 -84.3906 179° South 451 519 35,000  Level Jacksonville Center
Fri 04:17:11 PM 31.3331 -84.3883 179° South 457 526 35,000  Level Jacksonville Center
Fri 04:18:11 PM 31.2056 -84.3864 179° South 457 526 35,000  Level Jacksonville Center
Fri 04:19:11 PM 31.0803 -84.3869 180° South 457 526 35,000  Level Jacksonville Center
Fri 04:20:11 PM 30.9553 -84.3825 178° South 457 526 35,000  Level Jacksonville Center
Fri 04:21:11 PM 30.8278 -84.3803 179° South 457 526 35,000  Level Jacksonville Center
Fri 04:22:11 PM 30.6983 -84.3758 178° South 457 526 35,000  Level Jacksonville Center
Fri 04:23:11 PM 30.5733 -84.3547 172° South 457 526 35,000  Level Jacksonville Center
Fri 04:24:11 PM 30.4486 -84.3047 161° South 462 532 35,000  Level Jacksonville Center
Fri 04:25:11 PM 30.3264 -84.2233 150° Southeast 477 549 35,000  Level Jacksonville Center
Fri 04:26:11 PM 30.2228 -84.1569 151° Southeast 482 555 35,000  Level Jacksonville Center
Fri 04:27:11 PM 30.1022 -84.0786 151° Southeast 487 560 35,000  Level Jacksonville Center
Fri 04:28:11 PM 29.9861 -84.0053 151° Southeast 487 560 35,000  Level Jacksonville Center
Fri 04:29:11 PM 29.8697 -83.9272 150° Southeast 487 560 35,000  Level Jacksonville Center
Fri 04:30:11 PM 29.7514 -83.8519 151° Southeast 487 560 35,000  Level Jacksonville Center
Fri 04:31:11 PM 29.6350 -83.7792 151° Southeast 487 560 35,000  Level Jacksonville Center
Fri 04:32:11 PM 29.5186 -83.7017 150° Southeast 482 555 35,000  Level Jacksonville Center
Fri 04:33:11 PM 29.4022 -83.6267 151° Southeast 482 555 35,000  Level Jacksonville Center
Fri 04:34:11 PM 29.2733 -83.5425 150° Southeast 482 555 35,000  Level Jacksonville Center
Fri 04:35:11 PM 29.1567 -83.4703 152° Southeast 482 555 35,000  Level Jacksonville Center
Fri 04:36:11 PM 29.0422 -83.3961 150° Southeast 476 548 35,000  Level Jacksonville Center
Fri 04:41:39 PM 28.4041 -82.9935 150° Southeast 475 547 35,000  Level FlightAware ADS-B
Fri 04:42:18 PM 28.3287 -82.9462 151° Southeast 476 548 35,000  Level FlightAware ADS-B
Fri 04:42:48 PM 28.2724 -82.9111 151° Southeast 475 547 35,000  Level FlightAware ADS-B
Fri 04:43:22 PM 28.2059 -82.8696 151° Southeast 474 545 35,000  Level FlightAware ADS-B
Fri 04:44:39 PM 28.0573 -82.7771 151° Southeast 473 544 35,000  Level FlightAware ADS-B
Fri 04:45:19 PM 27.9825 -82.7307 151° Southeast 475 547 35,000  Level FlightAware ADS-B
Fri 04:45:59 PM 27.9027 -82.6812 151° Southeast 476 548 35,000  Level FlightAware ADS-B
Fri 04:46:52 PM 27.8034 -82.6152 150° Southeast 478 550 35,000  Level FlightAware ADS-B
Fri 04:47:31 PM 27.7288 -82.5648 149° Southeast 474 545 35,000  Level FlightAware ADS-B
Fri 04:48:00 PM 27.6742 -82.5377 156° South 451 519 35,000  Level FlightAware ADS-B
Fri 04:49:27 PM 27.5144 -82.4875 156° South 450 518 35,000  Level Miami Center
Fri 04:54:54 PM 26.8342 -82.2811 156° South 466 536 35,000  Level FlightAware ADS-B
Fri 04:55:12 PM 26.7996 -82.2551 146° Southeast 487 560 35,000  Level FlightAware ADS-B
Fri 04:55:53 PM 26.7451 -82.1691 125° Southeast 506 582 35,000  Level FlightAware ADS-B
Fri 04:56:24 PM 26.7104 -82.0963 118° Southeast 506 582 35,000  Level FlightAware ADS-B
Fri 04:57:03 PM 26.6689 -82.0090 118° Southeast 503 579 35,000  Level FlightAware ADS-B
Fri 04:57:34 PM 26.6345 -81.9364 118° Southeast 501 577 35,000  Level FlightAware ADS-B
Fri 04:58:14 PM 26.5926 -81.8488 118° Southeast 501 577 35,000  Level FlightAware ADS-B
Fri 04:58:43 PM 26.5609 -81.7875 120° Southeast 488 562 35,000  Level FlightAware ADS-B
Fri 04:59:04 PM 26.5225 -81.7467 136° Southeast 467 537 35,000  Level FlightAware ADS-B
Fri 04:59:51 PM 26.4393 -81.6818 145° Southeast 468 539 35,000  Level FlightAware ADS-B
Fri 05:01:43 PM 26.2393 -81.5273 145° Southeast 469 540 35,000  Level FlightAware ADS-B
Fri 05:02:34 PM 26.1484 -81.4564 145° Southeast 468 539 35,000  Level FlightAware ADS-B
Fri 05:03:04 PM 26.1099 -81.4264 145° Southeast 457 526 35,000  Level FlightAware ADS-B
Fri 05:03:55 PM 26.0034 -81.3972 166° South 454 522 35,000  Level FlightAware ADS-B
Fri 05:04:04 PM 25.9792 -81.4013 189° South 405 466 35,000  Level FlightAware ADS-B
Fri 05:04:55 PM 25.8863 -81.4230 192° South 408 470 35,000  Level FlightAware ADS-B
Fri 05:05:34 PM 25.8152 -81.4392 192° South 411 473 35,000  Level FlightAware ADS-B
Fri 05:06:04 PM 25.7580 -81.4523 192° South 411 473 35,000  Level FlightAware ADS-B
Fri 05:07:27 PM 25.6231 -81.4858 192° South 413 475 35,000  Level Miami Center
Fri 05:08:27 PM 25.5094 -81.5114 191° South 413 475 35,000  Level Miami Center
Fri 05:09:27 PM 25.3978 -81.5417 194° South 413 475 35,000  Level Miami Center
Fri 05:10:27 PM 25.2881 -81.5742 195° South 413 475 35,000  Level Miami Center
Fri 05:11:27 PM 25.1783 -81.6089 196° South 413 475 35,000 -50 Level Miami Center
Fri 05:12:27 PM 25.0689 -81.6389 194° South 413 475 34,900 -550 Descending Miami Center
Fri 05:13:27 PM 24.9572 -81.6714 195° South 419 482 33,900 -1,000 Descending Miami Center
Fri 05:14:27 PM 24.8497 -81.7014 194° South 413 475 32,900 -1,000 Descending Miami Center
Fri 05:15:27 PM 24.7419 -81.7339 195° South 413 475 31,900 -1,000 Descending Miami Center
Fri 05:16:27 PM 24.6283 -81.7658 194° South 408 470 30,900 -1,000 Descending Miami Center
Fri 05:17:27 PM 24.5342 -81.8283 211° Southwest 402 463 29,900 -1,000 Descending Miami Center
Fri 05:18:27 PM 24.4650 -81.9008 224° Southwest 366 421 28,900 -1,000 Descending Miami Center
Fri 05:19:27 PM 24.4014 -81.9894 232° Southwest 366 421 27,900 -1,000 Descending Miami Center
Fri 05:20:27 PM 24.3358 -82.0756 230° Southwest 371 427 26,900 -1,000 Descending Miami Center
Fri 05:21:27 PM 24.2725 -82.1572 230° Southwest 371 427 25,900 -1,000 Descending Miami Center
Fri 05:22:27 PM 24.2128 -82.2436 233° Southwest 361 415 24,900 -1,000 Descending Miami Center
Fri 05:23:27 PM 24.1472 -82.3250 229° Southwest 361 415 23,900 -1,000 Descending Miami Center
Fri 05:24:27 PM 24.0900 -82.4067 233° Southwest 361 415 22,900 -950 Descending Miami Center
Fri 05:25:27 PM 24.0144 -82.4758 220° Southwest 361 415 22,000 -1,050 Descending Miami Center
Fri 05:26:27 PM 23.9250 -82.5197 204° Southwest 354 407 20,800 -1,600 Descending Miami Center
Fri 05:27:27 PM 23.8303 -82.5403 191° South 346 398 18,800 -2,000 Descending Miami Center
Fri 05:29:00 PM 23.6486 -82.4715 175° South  Level FlightAware Approximate
Fri 05:36:00 PM 22.9891 -82.4091 180° South  Level Estimated
Fri 05:37:00 PM 22.9891 -82.4091 180° South  Level Estimated
Fri 05:38:00 PM 22.9891 -82.4091 180° South  Level Estimated
Fri 05:39:00 PM 22.9891 -82.4091 180° South  Level Estimated
Fri 05:40:00 PM 22.9891 -82.4091 180° South  Level Estimated
Fri 05:41:00 PM 22.9891 -82.4091 180° South  Level Estimated
Fri 05:42:00 PM 22.9891 -82.4091 180° South  Level Estimated
Fri 05:43:00 PM 22.9891 -82.4091 180° South  Level Estimated
Fri 05:44:00 PM 22.9891 -82.4091 180° South  Level Estimated
Fri 05:45:00 PM 22.9891 -82.4091 180° South  Level Estimated
Fri 05:46:00 PM 22.9891 -82.4091 180° South  Level Estimated
Fri 05:47:00 PM 22.9891 -82.4091 180° South  Level Estimated
Fri 05:48:00 PM 22.9891 -82.4091 180° South  Level Estimated
Fri 05:49:00 PM 22.9891 -82.4091 180° South  Level Estimated
Fri 05:50:00 PM 22.9891 -82.4091 180° South  Level Estimated
Fri 05:51:00 PM 22.9891 -82.4091 180° South  Level Estimated
Fri 05:52:00 PM 22.9891 -82.4091 180° South  Level Estimated
Fri 05:53:00 PM 22.9891 -82.4091 180° South  Level Estimated
Fri 05:54:00 PM 22.9891 -82.4091 180° South  Level Estimated
Fri 05:55:00 PM 22.9891 -82.4091 180° South  Level Estimated

Login

Don't have an account? Register now (free) for customized features, flight alerts, and more!